You are not logged in, Click here to log in
ICAO: KLAX Country: 美國加州大洛杉磯地區
Latitude: 33.9416 Longitude: -118.409
Total Arrivals: 41 Total Departures: 30
Latest Arrival: CI8 (RCTP-KLAX)CHANG SHENG. HSIUNG Latest Departure: CI5117 (KLAX-RCTP)CHANG SHENG. HSIUNG
Scenery:
METAR : KLAX 221833Z 27004KT 10SM FEW250 27/17 A2981

洛杉磯國際機場LAX